createdAt,value
2023-04-10T00:00:09.871Z,100094.50
2023-04-10T00:02:39.713Z,100093.66
2023-04-10T00:05:09.707Z,100095.31
2023-04-10T00:07:38.130Z,100090.63
2023-04-10T00:10:07.866Z,100092.06
2023-04-10T00:12:38.201Z,100089.09
2023-04-10T00:15:08.518Z,100093.50
2023-04-10T00:17:36.884Z,100094.31
2023-04-10T00:20:08.664Z,100089.09
2023-04-10T00:22:37.066Z,100087.78
2023-04-10T00:25:06.767Z,100090.75
2023-04-10T00:27:35.214Z,100079.53
2023-04-10T00:30:03.695Z,100090.25
2023-04-10T00:32:32.141Z,100087.25
2023-04-10T00:35:00.573Z,100084.50
2023-04-10T00:37:30.246Z,100084.50
2023-04-10T00:39:58.640Z,100076.28
2023-04-10T00:42:27.117Z,100075.19
2023-04-10T00:44:55.679Z,100081.28
2023-04-10T00:47:24.188Z,100088.69
2023-04-10T00:49:52.903Z,100082.94
2023-04-10T00:52:21.900Z,100081.03
2023-04-10T00:54:51.688Z,100081.03
2023-04-10T00:57:20.183Z,100080.19
2023-04-10T00:59:51.090Z,100080.19
2023-04-10T01:02:20.334Z,100075.78
2023-04-10T01:04:49.205Z,100077.09
2023-04-10T01:07:31.341Z,100072.09
2023-04-10T01:10:14.451Z,100071.78
2023-04-10T01:13:01.024Z,100078.59
2023-04-10T01:15:31.960Z,100070.84
2023-04-10T01:18:08.028Z,100077.44
2023-04-10T01:20:41.346Z,100078.22
2023-04-10T01:23:38.876Z,100088.41
2023-04-10T01:26:11.774Z,100077.91
2023-04-10T01:29:01.744Z,100078.16
2023-04-10T01:31:38.950Z,100085.31
2023-04-10T01:34:12.948Z,100084.47
2023-04-10T01:36:50.685Z,100079.81
2023-04-10T01:39:22.291Z,100080.66
2023-04-10T01:41:54.874Z,100081.50
2023-04-10T01:44:29.174Z,100082.34
2023-04-10T01:46:58.870Z,100078.75
2023-04-10T01:49:29.715Z,100073.25
2023-04-10T01:52:00.023Z,100074.31
2023-04-10T01:54:29.968Z,100082.56
2023-04-10T01:56:59.250Z,100072.09
2023-04-10T01:59:29.526Z,100074.00
2023-04-10T02:01:58.778Z,100079.47
2023-04-10T02:04:27.766Z,100081.66
2023-04-10T02:07:05.718Z,100079.38
2023-04-10T02:09:46.923Z,100079.63
2023-04-10T02:12:23.504Z,100077.97
2023-04-10T02:14:56.802Z,100079.28
2023-04-10T02:17:29.977Z,100072.13
2023-04-10T02:19:59.830Z,100073.47
2023-04-10T02:22:28.760Z,100073.94
2023-04-10T02:24:58.445Z,100071.44
2023-04-10T02:27:31.607Z,100070.88
2023-04-10T02:30:02.531Z,100062.53
2023-04-10T02:32:31.772Z,100065.50
2023-04-10T02:35:00.321Z,100065.97
2023-04-10T02:37:28.770Z,100070.88
2023-04-10T02:39:57.203Z,100067.50
2023-04-10T02:42:25.598Z,100069.44
2023-04-10T02:44:54.007Z,100065.03
2023-04-10T02:47:23.998Z,100060.38
2023-04-10T02:49:52.472Z,100062.03
2023-04-10T02:52:20.828Z,100063.97
2023-04-10T02:54:49.169Z,100059.28
2023-04-10T02:57:17.992Z,100055.94
2023-04-10T02:59:46.306Z,100069.66
2023-04-10T03:02:14.857Z,100064.44
2023-04-10T03:04:44.686Z,100058.34
2023-04-10T03:07:13.210Z,100071.50
2023-04-10T03:09:41.599Z,100068.38
2023-04-10T03:12:09.977Z,100070.28
2023-04-10T03:14:38.356Z,100066.75
2023-04-10T03:17:07.490Z,100057.66
2023-04-10T03:19:35.959Z,100063.41
2023-04-10T03:22:05.647Z,100053.50
2023-04-10T03:24:34.018Z,100054.81
2023-04-10T03:27:02.383Z,100058.66
2023-04-10T03:29:30.795Z,100058.53
2023-04-10T03:31:59.190Z,100058.75
2023-04-10T03:34:27.548Z,100064.75
2023-04-10T03:36:56.045Z,100064.16
2023-04-10T03:39:25.831Z,100063.53
2023-04-10T03:41:54.269Z,100060.47
2023-04-10T03:44:23.104Z,100062.63
2023-04-10T03:46:51.626Z,100063.09
2023-04-10T03:49:19.955Z,100061.66
2023-04-10T03:51:48.408Z,100062.16
2023-04-10T03:54:16.782Z,100062.06
2023-04-10T03:56:46.607Z,100064.41
2023-04-10T03:59:14.997Z,100057.75
2023-04-10T04:01:43.424Z,100066.44
2023-04-10T04:04:12.260Z,100065.28
2023-04-10T04:06:40.936Z,100068.47
2023-04-10T04:09:09.363Z,100068.13
2023-04-10T04:11:38.587Z,100065.88
2023-04-10T04:14:08.333Z,100078.13
2023-04-10T04:16:36.793Z,100080.28
2023-04-10T04:19:05.167Z,100086.03
2023-04-10T04:21:33.491Z,100089.81
2023-04-10T04:24:01.916Z,100086.47
2023-04-10T04:26:30.407Z,100085.88
2023-04-10T04:28:58.806Z,100078.50
2023-04-10T04:31:32.527Z,100079.56
2023-04-10T04:34:01.175Z,100084.22
2023-04-10T04:36:29.749Z,100093.28
2023-04-10T04:38:58.192Z,100090.53
2023-04-10T04:41:26.521Z,100089.69
2023-04-10T04:43:55.967Z,100095.16
2023-04-10T04:46:24.626Z,100089.47
2023-04-10T04:48:54.540Z,100095.53
2023-04-10T04:51:24.061Z,100099.72
2023-04-10T04:53:52.751Z,100103.91
2023-04-10T04:56:21.530Z,100112.72
2023-04-10T04:58:49.857Z,100107.56
2023-04-10T05:01:18.943Z,100104.63
2023-04-10T05:03:47.395Z,100106.63
2023-04-10T05:06:18.719Z,100110.81
2023-04-10T05:08:47.078Z,100107.09
2023-04-10T05:11:15.686Z,100103.91
2023-04-10T05:13:44.037Z,100100.44
2023-04-10T05:16:12.447Z,100089.81
2023-04-10T05:18:42.855Z,100101.97
2023-04-10T05:21:11.286Z,100107.81
2023-04-10T05:23:40.988Z,100107.09
2023-04-10T05:26:09.422Z,100105.53
2023-04-10T05:28:38.031Z,100115.78
2023-04-10T05:31:07.178Z,100119.69
2023-04-10T05:33:35.737Z,100119.59
2023-04-10T05:36:05.529Z,100119.69
2023-04-10T05:38:34.130Z,100128.63
2023-04-10T05:41:03.923Z,100122.19
2023-04-10T05:43:32.341Z,100126.47
2023-04-10T05:46:00.793Z,100128.00
2023-04-10T05:48:29.261Z,100122.16
2023-04-10T05:50:57.625Z,100131.88
2023-04-10T05:53:32.151Z,100137.00
2023-04-10T05:56:02.023Z,100131.34
2023-04-10T05:58:32.022Z,100134.22
2023-04-10T06:01:00.333Z,100135.97
2023-04-10T06:03:30.780Z,100140.22
2023-04-10T06:06:02.561Z,100136.25
2023-04-10T06:08:31.139Z,100140.84
2023-04-10T06:10:59.505Z,100136.94
2023-04-10T06:13:28.183Z,100134.13
2023-04-10T06:15:57.976Z,100138.97
2023-04-10T06:18:26.454Z,100134.47
2023-04-10T06:20:56.752Z,100140.28
2023-04-10T06:23:25.154Z,100145.03
2023-04-10T06:25:53.534Z,100144.78
2023-04-10T06:28:21.977Z,100140.69
2023-04-10T06:30:50.351Z,100146.72
2023-04-10T06:33:20.097Z,100144.78
2023-04-10T06:35:48.453Z,100139.53
2023-04-10T06:38:16.920Z,100147.47
2023-04-10T06:40:45.352Z,100156.78
2023-04-10T06:43:13.779Z,100157.16
2023-04-10T06:45:42.719Z,100150.06
2023-04-10T06:48:11.221Z,100152.66
2023-04-10T06:50:41.168Z,100160.16
2023-04-10T06:53:09.608Z,100158.06
2023-04-10T06:55:38.483Z,100161.00
2023-04-10T06:58:06.913Z,100156.72
2023-04-10T07:00:35.323Z,100160.94
2023-04-10T07:03:03.729Z,100161.34
2023-04-10T07:05:32.236Z,100170.84
2023-04-10T07:08:02.101Z,100169.53
2023-04-10T07:10:30.592Z,100163.88
2023-04-10T07:12:58.939Z,100157.31
2023-04-10T07:15:27.357Z,100157.97
2023-04-10T07:17:56.411Z,100166.59
2023-04-10T07:20:24.963Z,100162.84
2023-04-10T07:22:53.407Z,100165.41
2023-04-10T07:25:23.356Z,100164.34
2023-04-10T07:27:51.760Z,100164.16
2023-04-10T07:30:21.097Z,100168.91
2023-04-10T07:32:50.169Z,100158.78
2023-04-10T07:35:18.934Z,100153.63
2023-04-10T07:37:51.590Z,100155.66
2023-04-10T07:40:20.498Z,100156.34
2023-04-10T07:42:52.031Z,100151.75
2023-04-10T07:45:22.106Z,100154.59
2023-04-10T07:47:50.429Z,100159.09
2023-04-10T07:50:18.875Z,100157.00
2023-04-10T07:52:49.838Z,100157.91
2023-04-10T07:55:18.463Z,100151.63
2023-04-10T07:57:46.846Z,100151.09
2023-04-10T08:00:18.697Z,100142.66
2023-04-10T08:02:47.203Z,100147.66
2023-04-10T08:05:15.799Z,100149.31
2023-04-10T08:07:44.149Z,100146.59
2023-04-10T08:10:13.270Z,100144.72
2023-04-10T08:12:41.644Z,100151.06
2023-04-10T08:15:11.110Z,100145.03
2023-04-10T08:17:40.824Z,100146.44
2023-04-10T08:20:11.730Z,100147.88
2023-04-10T08:22:40.216Z,100152.31
2023-04-10T08:25:09.307Z,100152.06
2023-04-10T08:27:37.970Z,100149.34
2023-04-10T08:30:08.138Z,100156.81
2023-04-10T08:32:37.019Z,100151.84
2023-04-10T08:35:08.171Z,100153.47
2023-04-10T08:37:37.103Z,100149.66
2023-04-10T08:40:06.742Z,100141.38
2023-04-10T08:42:35.752Z,100144.22
2023-04-10T08:45:05.270Z,100147.00
2023-04-10T08:47:37.968Z,100148.94
2023-04-10T08:50:12.244Z,100141.47
2023-04-10T08:52:45.038Z,100143.41
2023-04-10T08:55:15.760Z,100135.38
2023-04-10T08:57:50.941Z,100140.63
2023-04-10T09:00:26.984Z,100132.88
2023-04-10T09:05:47.829Z,100117.66
2023-04-10T09:08:17.039Z,100122.94
2023-04-10T09:10:46.024Z,100119.88
2023-04-10T09:13:14.409Z,100114.88
2023-04-10T09:15:58.349Z,100120.72
2023-04-10T09:18:47.226Z,100124.84
2023-04-10T09:21:20.103Z,100124.59
2023-04-10T09:23:49.987Z,100115.75
2023-04-10T09:26:29.207Z,100115.75
2023-04-10T09:29:03.509Z,100120.44
2023-04-10T09:31:35.127Z,100107.97
2023-04-10T09:34:13.468Z,100112.13
2023-04-10T09:36:44.384Z,100100.25
2023-04-10T09:39:13.905Z,100102.16
2023-04-10T09:41:53.092Z,100091.94
2023-04-10T09:44:31.849Z,100090.81
2023-04-10T09:47:00.766Z,100091.66
2023-04-10T09:49:29.158Z,100091.66
2023-04-10T09:51:58.907Z,100084.72
2023-04-10T09:54:38.461Z,100077.78
2023-04-10T09:57:08.367Z,100078.03
2023-04-10T09:59:42.937Z,100075.03
2023-04-10T10:02:12.677Z,100073.59
2023-04-10T10:04:42.500Z,100070.56
2023-04-10T10:07:12.339Z,100060.28
2023-04-10T10:09:42.044Z,100061.63
2023-04-10T10:12:11.883Z,100062.16
2023-04-10T10:14:55.483Z,100050.50
2023-04-10T10:17:30.357Z,100051.28
2023-04-10T10:20:05.919Z,100038.53
2023-04-10T10:22:36.263Z,100040.38
2023-04-10T10:25:05.557Z,100029.56
2023-04-10T10:27:37.770Z,100031.13
2023-04-10T10:30:25.470Z,100024.09
2023-04-10T10:32:59.483Z,100026.22
2023-04-10T10:35:29.961Z,100026.44
2023-04-10T10:38:01.353Z,100025.28
2023-04-10T10:40:34.211Z,100014.38
2023-04-10T10:43:14.740Z,100008.34
2023-04-10T10:46:02.179Z,100008.50
2023-04-10T10:48:30.716Z,100009.69
2023-04-10T10:51:01.762Z,100000.78
2023-04-10T10:53:40.564Z,99995.88
2023-04-10T10:56:42.347Z,99980.34
2023-04-10T10:59:11.665Z,99970.84
2023-04-10T11:02:00.233Z,99975.63
2023-04-10T11:04:45.127Z,99963.94
2023-04-10T11:07:14.161Z,99965.31
2023-04-10T11:09:49.504Z,99954.63
2023-04-10T11:12:18.451Z,99956.41
2023-04-10T11:14:57.654Z,99946.75
2023-04-10T11:17:48.998Z,99942.28
2023-04-10T11:20:17.968Z,99937.22
2023-04-10T11:23:12.271Z,99922.72
2023-04-10T11:25:53.692Z,99927.88
2023-04-10T11:28:38.779Z,99926.88
2023-04-10T11:31:19.766Z,99925.03
2023-04-10T11:33:50.042Z,99917.22
2023-04-10T11:36:19.094Z,99915.56
2023-04-10T11:38:57.203Z,99908.88
2023-04-10T11:41:32.023Z,99905.63
2023-04-10T11:44:01.611Z,99900.44
2023-04-10T11:46:31.022Z,99893.81
2023-04-10T11:49:02.838Z,99896.03
2023-04-10T11:51:32.641Z,99892.03
2023-04-10T11:54:09.202Z,99895.97
2023-04-10T11:56:41.047Z,99886.56
2023-04-10T11:59:11.422Z,99878.88
2023-04-10T12:01:42.711Z,99881.06
2023-04-10T12:04:19.634Z,99879.59
2023-04-10T12:06:49.681Z,99869.78
2023-04-10T12:09:20.644Z,99875.28
2023-04-10T12:11:59.453Z,99870.78
2023-04-10T12:14:33.177Z,99860.31
2023-04-10T12:17:02.563Z,99856.59
2023-04-10T12:19:32.013Z,99865.56
2023-04-10T12:22:02.025Z,99862.69
2023-04-10T12:24:44.423Z,99854.00
2023-04-10T12:27:19.230Z,99868.19
2023-04-10T12:29:48.608Z,99859.63
2023-04-10T12:32:17.587Z,99853.72
2023-04-10T12:34:52.656Z,99858.34
2023-04-10T12:37:21.248Z,99851.63
2023-04-10T12:39:49.973Z,99852.56
2023-04-10T12:42:22.466Z,99841.38
2023-04-10T12:44:55.774Z,99839.63
2023-04-10T12:47:25.293Z,99844.59
2023-04-10T12:50:11.405Z,99837.34
2023-04-10T12:52:42.267Z,99836.38
2023-04-10T12:55:14.636Z,99827.44
2023-04-10T12:57:46.122Z,99832.19
2023-04-10T13:00:17.561Z,99832.97
2023-04-10T13:02:46.950Z,99826.72
2023-04-10T13:05:16.052Z,99820.13
2023-04-10T13:07:44.485Z,99825.41
2023-04-10T13:10:13.163Z,99819.88
2023-04-10T13:12:44.323Z,99817.44
2023-04-10T13:15:12.652Z,99821.38
2023-04-10T13:17:41.935Z,99813.47
2023-04-10T13:20:13.449Z,99803.97
2023-04-10T13:22:41.830Z,99797.91
2023-04-10T13:25:10.980Z,99803.25
2023-04-10T13:27:39.359Z,99793.16
2023-04-10T13:30:13.219Z,99777.94
2023-04-10T13:32:42.181Z,99777.41
2023-04-10T13:35:11.124Z,99768.25
2023-04-10T13:37:39.536Z,99768.41
2023-04-10T13:40:10.136Z,99764.97
2023-04-10T13:42:41.263Z,99753.44
2023-04-10T13:45:13.247Z,99749.03
2023-04-10T13:47:41.616Z,99742.41
2023-04-10T13:50:11.487Z,99741.47
2023-04-10T13:52:39.925Z,99742.84
2023-04-10T13:55:09.965Z,99742.47
2023-04-10T13:57:38.442Z,99732.47
2023-04-10T14:00:10.314Z,99740.28
2023-04-10T14:02:40.186Z,99730.47
2023-04-10T14:05:10.313Z,99722.31
2023-04-10T14:07:38.712Z,99724.44
2023-04-10T14:10:09.618Z,99726.06
2023-04-10T14:12:38.097Z,99722.97
2023-04-10T14:15:08.329Z,99722.72
2023-04-10T14:17:36.675Z,99730.75
2023-04-10T14:20:11.354Z,99730.44
2023-04-10T14:22:39.668Z,99727.41
2023-04-10T14:25:13.541Z,99720.97
2023-04-10T14:27:42.352Z,99720.53
2023-04-10T14:30:11.922Z,99716.91
2023-04-10T14:32:40.774Z,99718.09
2023-04-10T14:35:12.054Z,99704.28
2023-04-10T14:37:40.711Z,99712.28
2023-04-10T14:40:11.000Z,99700.47
2023-04-10T14:42:39.315Z,99706.72
2023-04-10T14:45:09.468Z,99704.63
2023-04-10T14:47:37.907Z,99713.41
2023-04-10T14:50:08.163Z,99716.88
2023-04-10T14:52:38.005Z,99709.00
2023-04-10T14:55:07.588Z,99709.38
2023-04-10T14:57:36.177Z,99716.84
2023-04-10T15:00:04.971Z,99717.22
2023-04-10T15:02:33.425Z,99723.59
2023-04-10T15:05:01.982Z,99720.22
2023-04-10T15:07:30.316Z,99711.78
2023-04-10T15:10:00.640Z,99713.00
2023-04-10T15:12:29.254Z,99714.22
2023-04-10T15:14:57.625Z,99712.50
2023-04-10T15:17:26.151Z,99711.00
2023-04-10T15:19:54.585Z,99711.81
2023-04-10T15:22:23.151Z,99705.69
2023-04-10T15:24:51.583Z,99708.22
2023-04-10T15:27:22.187Z,99707.44
2023-04-10T15:29:50.811Z,99703.81
2023-04-10T15:32:19.216Z,99699.22
2023-04-10T15:34:47.626Z,99702.31
2023-04-10T15:37:16.051Z,99698.19
2023-04-10T15:39:44.425Z,99689.06
2023-04-10T15:42:13.066Z,99682.59
2023-04-10T15:44:42.788Z,99683.66
2023-04-10T15:47:11.208Z,99683.28
2023-04-10T15:49:39.561Z,99679.09
2023-04-10T15:52:08.197Z,99682.16
2023-04-10T15:54:37.064Z,99673.53
2023-04-10T15:57:05.958Z,99675.59
2023-04-10T15:59:35.955Z,99673.06
2023-04-10T16:02:05.898Z,99670.84
2023-04-10T16:04:35.235Z,99669.47
2023-04-10T16:07:03.727Z,99661.91
2023-04-10T16:09:32.170Z,99660.22
2023-04-10T16:12:02.018Z,99655.72
2023-04-10T16:14:30.442Z,99660.38
2023-04-10T16:16:58.845Z,99650.81
2023-04-10T16:19:31.615Z,99659.88
2023-04-10T16:22:00.042Z,99651.66
2023-04-10T16:24:28.496Z,99647.31
2023-04-10T16:26:56.820Z,99653.00
2023-04-10T16:29:25.259Z,99648.19
2023-04-10T16:31:53.724Z,99652.50
2023-04-10T16:34:22.126Z,99647.66
2023-04-10T16:36:51.920Z,99647.53
2023-04-10T16:39:20.325Z,99642.72
2023-04-10T16:41:48.643Z,99636.41
2023-04-10T16:44:17.074Z,99643.53
2023-04-10T16:46:45.581Z,99635.06
2023-04-10T16:49:14.051Z,99637.41
2023-04-10T16:51:42.467Z,99628.66
2023-04-10T16:54:12.252Z,99631.03
2023-04-10T16:56:40.687Z,99626.69
2023-04-10T16:59:09.193Z,99631.00
2023-04-10T17:01:39.803Z,99631.09
2023-04-10T17:04:09.330Z,99629.81
2023-04-10T17:06:37.883Z,99631.03
2023-04-10T17:09:06.239Z,99628.13
2023-04-10T17:11:36.008Z,99637.34
2023-04-10T17:14:04.455Z,99627.47
2023-04-10T17:16:33.014Z,99628.16
2023-04-10T17:19:01.479Z,99634.91
2023-04-10T17:21:30.216Z,99636.13
2023-04-10T17:23:58.695Z,99627.63
2023-04-10T17:26:27.256Z,99632.75
2023-04-10T17:28:57.033Z,99633.44
2023-04-10T17:31:25.551Z,99628.25
2023-04-10T17:33:54.099Z,99633.59
2023-04-10T17:36:22.586Z,99628.75
2023-04-10T17:38:54.099Z,99625.50
2023-04-10T17:41:22.843Z,99629.75
2023-04-10T17:43:52.194Z,99631.28
2023-04-10T17:46:22.620Z,99627.19
2023-04-10T17:48:51.331Z,99624.78
2023-04-10T17:51:19.769Z,99625.16
2023-04-10T17:53:48.188Z,99620.78
2023-04-10T17:56:20.867Z,99622.81
2023-04-10T17:58:50.790Z,99612.88
2023-04-10T18:01:25.868Z,99621.84
2023-04-10T18:03:54.423Z,99624.38
2023-04-10T18:06:23.126Z,99625.84
2023-04-10T18:08:51.576Z,99622.31
2023-04-10T18:11:20.008Z,99625.09
2023-04-10T18:13:49.010Z,99625.44
2023-04-10T18:16:18.452Z,99624.66
2023-04-10T18:18:48.258Z,99621.13
2023-04-10T18:21:16.954Z,99623.94
2023-04-10T18:23:45.718Z,99620.69
2023-04-10T18:26:14.232Z,99619.06
2023-04-10T18:28:43.591Z,99622.16
2023-04-10T18:31:14.813Z,99625.00
2023-04-10T18:33:44.027Z,99622.25
2023-04-10T18:36:14.187Z,99625.38
2023-04-10T18:38:44.244Z,99624.56
2023-04-10T18:41:13.154Z,99621.03
2023-04-10T18:43:42.380Z,99618.56
2023-04-10T18:46:14.081Z,99616.66
2023-04-10T18:48:43.919Z,99611.72
2023-04-10T18:51:14.474Z,99614.50
2023-04-10T18:53:43.601Z,99615.38
2023-04-10T18:56:12.366Z,99607.06
2023-04-10T18:58:43.200Z,99613.47
2023-04-10T19:01:12.561Z,99606.03
2023-04-10T19:03:41.658Z,99607.72
2023-04-10T19:06:11.282Z,99598.63
2023-04-10T19:08:41.944Z,99605.84
2023-04-10T19:11:12.034Z,99598.66
2023-04-10T19:13:40.898Z,99600.34
2023-04-10T19:16:14.462Z,99597.59
2023-04-10T19:18:43.451Z,99595.69
2023-04-10T19:21:13.251Z,99598.22
2023-04-10T19:23:44.820Z,99601.84
2023-04-10T19:26:14.308Z,99598.25
2023-04-10T19:28:43.152Z,99603.78
2023-04-10T19:31:12.166Z,99605.22
2023-04-10T19:33:41.982Z,99604.94
2023-04-10T19:36:11.317Z,99610.22
2023-04-10T19:38:41.057Z,99602.47
2023-04-10T19:41:17.136Z,99611.91
2023-04-10T19:43:46.104Z,99612.47
2023-04-10T19:46:19.098Z,99612.19
2023-04-10T19:48:48.750Z,99601.97
2023-04-10T19:51:17.826Z,99606.13
2023-04-10T19:53:46.304Z,99604.19
2023-04-10T19:56:17.086Z,99603.13
2023-04-10T19:58:56.066Z,99597.31
2023-04-10T20:01:24.797Z,99596.19
2023-04-10T20:03:53.326Z,99589.31
2023-04-10T20:06:22.587Z,99587.41
2023-04-10T20:08:51.018Z,99594.31
2023-04-10T20:11:20.739Z,99585.75
2023-04-10T20:13:49.120Z,99583.28
2023-04-10T20:16:17.686Z,99583.53
2023-04-10T20:18:46.091Z,99577.47
2023-04-10T20:21:14.423Z,99576.91
2023-04-10T20:23:42.778Z,99577.50
2023-04-10T20:26:12.736Z,99571.97
2023-04-10T20:28:42.562Z,99572.53
2023-04-10T20:31:13.200Z,99567.56
2023-04-10T20:33:41.900Z,99576.41
2023-04-10T20:36:11.079Z,99574.19
2023-04-10T20:38:39.563Z,99570.06
2023-04-10T20:41:08.074Z,99564.28
2023-04-10T20:43:36.491Z,99556.56
2023-04-10T20:46:09.085Z,99555.16
2023-04-10T20:48:38.431Z,99554.63
2023-04-10T20:51:07.793Z,99560.69
2023-04-10T20:53:36.197Z,99557.38
2023-04-10T20:56:06.354Z,99553.25
2023-04-10T20:58:34.833Z,99550.78
2023-04-10T21:01:03.285Z,99554.38
2023-04-10T21:03:33.225Z,99543.59
2023-04-10T21:06:04.554Z,99540.00
2023-04-10T21:08:33.101Z,99541.13
2023-04-10T21:11:01.509Z,99540.56
2023-04-10T21:13:29.966Z,99534.78
2023-04-10T21:15:58.392Z,99534.22
2023-04-10T21:18:26.818Z,99533.66
2023-04-10T21:20:56.599Z,99528.69
2023-04-10T21:23:25.041Z,99526.22
2023-04-10T21:25:54.135Z,99524.84
2023-04-10T21:28:22.670Z,99524.59
2023-04-10T21:30:51.080Z,99520.44
2023-04-10T21:33:19.546Z,99526.78
2023-04-10T21:35:48.151Z,99528.41
2023-04-10T21:38:17.857Z,99532.59
2023-04-10T21:40:52.353Z,99526.22
2023-04-10T21:43:20.977Z,99526.75
2023-04-10T21:45:49.688Z,99525.34
2023-04-10T21:48:19.589Z,99516.53
2023-04-10T21:50:48.149Z,99513.22
2023-04-10T21:53:17.883Z,99516.53
2023-04-10T21:55:46.376Z,99515.16
2023-04-10T21:58:14.751Z,99514.88
2023-04-10T22:00:47.026Z,99507.97
2023-04-10T22:03:17.206Z,99505.75
2023-04-10T22:05:45.986Z,99506.88
2023-04-10T22:08:15.035Z,99493.94
2023-04-10T22:10:45.623Z,99499.13
2023-04-10T22:13:27.493Z,99499.72
2023-04-10T22:15:58.589Z,99498.56
2023-04-10T22:18:27.113Z,99496.94
2023-04-10T22:20:55.494Z,99486.75
2023-04-10T22:23:24.258Z,99484.53
2023-04-10T22:25:53.946Z,99479.31
2023-04-10T22:28:22.228Z,99477.94
2023-04-10T22:30:50.846Z,99470.19
2023-04-10T22:33:19.227Z,99464.97
2023-04-10T22:35:47.651Z,99466.06
2023-04-10T22:38:16.222Z,99458.34
2023-04-10T22:40:44.584Z,99468.56
2023-04-10T22:43:14.314Z,99463.56
2023-04-10T22:45:43.311Z,99457.53
2023-04-10T22:48:11.771Z,99462.72
2023-04-10T22:50:40.165Z,99460.25
2023-04-10T22:53:08.576Z,99458.03
2023-04-10T22:55:39.247Z,99457.47
2023-04-10T22:58:08.329Z,99460.53
2023-04-10T23:00:38.080Z,99461.88
2023-04-10T23:03:06.490Z,99453.91
2023-04-10T23:05:34.908Z,99459.94
2023-04-10T23:08:03.233Z,99456.09
2023-04-10T23:10:31.672Z,99451.94
2023-04-10T23:12:59.984Z,99453.59
2023-04-10T23:15:28.367Z,99445.88
2023-04-10T23:17:58.169Z,99444.19
2023-04-10T23:20:27.004Z,99430.72
2023-04-10T23:22:57.233Z,99436.75
2023-04-10T23:25:25.878Z,99420.81
2023-04-10T23:27:54.207Z,99416.94
2023-04-10T23:30:22.791Z,99421.88
2023-04-10T23:32:51.174Z,99418.00
2023-04-10T23:35:20.993Z,99417.72
2023-04-10T23:37:51.177Z,99419.34
2023-04-10T23:40:20.356Z,99422.38
2023-04-10T23:42:48.956Z,99413.59
2023-04-10T23:45:17.527Z,99423.47
2023-04-10T23:47:46.008Z,99410.22
2023-04-10T23:50:14.348Z,99406.91
2023-04-10T23:52:48.497Z,99402.78
2023-04-10T23:55:17.022Z,99402.22
2023-04-10T23:57:45.764Z,99393.41
